createdAt,value
2023-01-18T00:00:35.113Z,15.95
2023-01-18T00:03:02.906Z,15.52
2023-01-18T00:05:30.776Z,17.40
2023-01-18T00:07:58.434Z,15.85
2023-01-18T00:10:26.117Z,14.85
2023-01-18T00:12:54.267Z,16.55
2023-01-18T00:15:23.429Z,13.93
2023-01-18T00:17:52.564Z,16.85
2023-01-18T00:20:23.404Z,15.27
2023-01-18T00:22:52.138Z,15.85
2023-01-18T00:25:21.976Z,15.52
2023-01-18T00:27:51.697Z,15.65
2023-01-18T00:30:22.087Z,15.07
2023-01-18T00:32:55.196Z,19.10
2023-01-18T00:35:23.180Z,18.17
2023-01-18T00:37:52.097Z,15.98
2023-01-18T00:40:20.663Z,18.48
2023-01-18T00:43:05.966Z,18.90
2023-01-18T00:45:33.785Z,16.25
2023-01-18T00:48:03.036Z,16.23
2023-01-18T00:50:30.991Z,14.63
2023-01-18T00:53:00.169Z,17.23
2023-01-18T00:55:28.452Z,14.63
2023-01-18T00:57:56.208Z,18.30
2023-01-18T01:00:27.008Z,15.55
2023-01-18T01:02:55.088Z,17.05
2023-01-18T01:05:43.528Z,23.70
2023-01-18T01:08:16.780Z,20.90
2023-01-18T01:10:46.194Z,22.10
2023-01-18T01:13:31.797Z,18.33
2023-01-18T01:16:17.128Z,22.00
2023-01-18T01:19:02.181Z,20.55
2023-01-18T01:21:49.425Z,23.05
2023-01-18T01:24:34.818Z,20.58
2023-01-18T01:27:02.565Z,24.88
2023-01-18T01:29:30.316Z,22.00
2023-01-18T01:31:58.021Z,22.73
2023-01-18T01:34:27.205Z,21.23
2023-01-18T01:36:56.650Z,24.20
2023-01-18T01:39:24.428Z,20.60
2023-01-18T01:41:52.229Z,26.10
2023-01-18T01:44:51.974Z,20.67
2023-01-18T01:47:32.740Z,22.25
2023-01-18T01:50:08.879Z,20.52
2023-01-18T01:52:41.913Z,18.90
2023-01-18T01:55:17.069Z,19.42
2023-01-18T01:57:48.448Z,18.25
2023-01-18T02:00:19.556Z,18.83
2023-01-18T02:02:51.321Z,18.95
2023-01-18T02:05:19.891Z,18.98
2023-01-18T02:07:50.045Z,17.67
2023-01-18T02:10:17.989Z,19.90
2023-01-18T02:12:49.897Z,20.30
2023-01-18T02:15:20.011Z,21.83
2023-01-18T02:18:04.622Z,19.75
2023-01-18T02:21:09.792Z,18.70
2023-01-18T02:24:18.909Z,16.30
2023-01-18T02:27:04.688Z,21.70
2023-01-18T02:29:50.035Z,18.92
2023-01-18T02:32:27.848Z,17.48
2023-01-18T02:35:05.724Z,18.55
2023-01-18T02:37:43.607Z,21.08
2023-01-18T02:40:19.137Z,22.30
2023-01-18T02:43:12.938Z,25.95
2023-01-18T02:46:03.329Z,23.90
2023-01-18T02:48:35.237Z,23.75
2023-01-18T02:51:02.945Z,19.38
2023-01-18T02:53:31.891Z,22.67
2023-01-18T02:56:05.778Z,23.00
2023-01-18T02:58:36.406Z,22.77
2023-01-18T03:01:11.765Z,25.48
2023-01-18T03:03:42.437Z,25.95
2023-01-18T03:06:10.229Z,28.98
2023-01-18T03:08:42.929Z,28.92
2023-01-18T03:11:15.321Z,25.25
2023-01-18T03:13:58.601Z,22.85
2023-01-18T03:16:44.193Z,25.20
2023-01-18T03:19:35.224Z,25.10
2023-01-18T03:22:05.758Z,21.63
2023-01-18T03:24:41.458Z,22.40
2023-01-18T03:27:27.853Z,21.33
2023-01-18T03:30:13.975Z,22.63
2023-01-18T03:33:01.065Z,25.52
2023-01-18T03:35:31.818Z,25.73
2023-01-18T03:38:00.529Z,26.00
2023-01-18T03:40:31.205Z,24.08
2023-01-18T03:43:04.623Z,26.92
2023-01-18T03:45:37.424Z,21.45
2023-01-18T03:48:09.209Z,26.58
2023-01-18T03:50:44.302Z,22.20
2023-01-18T03:53:15.726Z,23.48
2023-01-18T03:55:48.923Z,22.00
2023-01-18T03:58:23.600Z,26.80
2023-01-18T04:00:53.262Z,25.25
2023-01-18T04:03:22.347Z,27.98
2023-01-18T04:05:50.219Z,25.55
2023-01-18T04:08:21.936Z,23.73
2023-01-18T04:10:49.657Z,24.92
2023-01-18T04:13:17.349Z,29.80
2023-01-18T04:15:45.110Z,26.40
2023-01-18T04:18:12.933Z,27.10
2023-01-18T04:20:42.204Z,25.48
2023-01-18T04:23:09.919Z,27.48
2023-01-18T04:25:38.367Z,22.73
2023-01-18T04:28:06.232Z,23.42
2023-01-18T04:30:33.882Z,45.88
2023-01-18T04:33:01.870Z,28.40
2023-01-18T04:35:29.691Z,28.27
2023-01-18T04:37:58.685Z,26.88
2023-01-18T04:40:26.553Z,25.98
2023-01-18T04:42:54.411Z,30.85
2023-01-18T04:45:22.147Z,30.02
2023-01-18T04:47:49.868Z,28.83
2023-01-18T04:50:18.101Z,28.67
2023-01-18T04:52:45.789Z,29.27
2023-01-18T04:55:15.935Z,28.42
2023-01-18T04:57:44.229Z,26.17
2023-01-18T05:00:14.471Z,28.55
2023-01-18T05:02:42.432Z,30.65
2023-01-18T05:05:10.766Z,28.42
2023-01-18T05:07:38.473Z,24.75
2023-01-18T05:10:07.168Z,25.25
2023-01-18T05:12:37.492Z,24.85
2023-01-18T05:15:06.871Z,18.50
2023-01-18T05:17:35.166Z,23.40
2023-01-18T05:20:03.253Z,21.50
2023-01-18T05:22:32.942Z,21.05
2023-01-18T05:25:00.717Z,19.90
2023-01-18T05:27:28.417Z,20.00
2023-01-18T05:29:57.488Z,18.40
2023-01-18T05:32:25.190Z,19.80
2023-01-18T05:34:52.837Z,13.95
2023-01-18T05:37:20.575Z,15.68
2023-01-18T05:39:48.374Z,14.18
2023-01-18T05:42:16.061Z,11.90
2023-01-18T05:44:43.751Z,17.23
2023-01-18T05:47:12.835Z,12.90
2023-01-18T05:49:41.984Z,15.80
2023-01-18T05:52:09.857Z,15.85
2023-01-18T05:54:37.538Z,13.40
2023-01-18T05:57:05.183Z,12.00
2023-01-18T05:59:32.986Z,11.57
2023-01-18T06:02:00.827Z,9.23
2023-01-18T06:04:29.945Z,10.20
2023-01-18T06:06:57.704Z,12.50
2023-01-18T06:09:29.229Z,12.25
2023-01-18T06:11:57.571Z,14.18
2023-01-18T06:14:25.265Z,10.38
2023-01-18T06:16:52.977Z,10.77
2023-01-18T06:19:20.754Z,10.98
2023-01-18T06:21:49.756Z,11.98
2023-01-18T06:24:17.395Z,11.90
2023-01-18T06:26:45.016Z,12.07
2023-01-18T06:29:12.776Z,15.65
2023-01-18T06:31:40.830Z,12.65
2023-01-18T06:34:10.128Z,11.68
2023-01-18T06:36:38.441Z,11.73
2023-01-18T06:39:08.749Z,16.85
2023-01-18T06:41:36.519Z,11.65
2023-01-18T06:44:04.483Z,12.82
2023-01-18T06:46:33.172Z,12.07
2023-01-18T06:49:01.059Z,11.40
2023-01-18T06:51:29.003Z,14.77
2023-01-18T06:53:56.706Z,12.43
2023-01-18T06:56:26.817Z,14.75
2023-01-18T06:58:55.795Z,15.82
2023-01-18T07:01:23.719Z,11.52
2023-01-18T07:03:51.663Z,14.40
2023-01-18T07:06:20.029Z,15.82
2023-01-18T07:08:49.294Z,15.32
2023-01-18T07:11:17.058Z,13.25
2023-01-18T07:13:46.327Z,19.80
2023-01-18T07:16:18.178Z,18.23
2023-01-18T07:18:47.673Z,17.00
2023-01-18T07:21:17.170Z,15.90
2023-01-18T07:23:45.289Z,16.13
2023-01-18T07:26:16.380Z,18.75
2023-01-18T07:28:44.552Z,22.33
2023-01-18T07:31:14.371Z,15.90
2023-01-18T07:33:42.181Z,15.38
2023-01-18T07:36:11.326Z,18.48
2023-01-18T07:38:39.115Z,14.68
2023-01-18T07:41:09.222Z,15.50
2023-01-18T07:43:38.512Z,15.15
2023-01-18T07:46:08.281Z,14.27
2023-01-18T07:48:38.952Z,14.25
2023-01-18T07:51:09.339Z,15.88
2023-01-18T07:53:38.319Z,16.70
2023-01-18T07:56:08.362Z,18.45
2023-01-18T07:58:36.442Z,13.65
2023-01-18T08:01:05.036Z,14.90
2023-01-18T08:03:32.940Z,15.00
2023-01-18T08:06:02.788Z,15.52
2023-01-18T08:08:31.673Z,19.80
2023-01-18T08:11:01.368Z,17.73
2023-01-18T08:13:29.625Z,14.25
2023-01-18T08:16:00.147Z,13.60
2023-01-18T08:18:28.156Z,12.00
2023-01-18T08:20:56.005Z,15.15
2023-01-18T08:23:25.185Z,11.18
2023-01-18T08:25:53.108Z,17.88
2023-01-18T08:28:20.872Z,13.55
2023-01-18T08:30:49.797Z,17.48
2023-01-18T08:33:17.611Z,13.00
2023-01-18T08:35:47.352Z,14.43
2023-01-18T08:38:17.162Z,17.63
2023-01-18T08:40:46.238Z,14.55
2023-01-18T08:43:13.958Z,12.90
2023-01-18T08:45:41.617Z,17.20
2023-01-18T08:48:12.082Z,16.08
2023-01-18T08:50:40.125Z,11.43
2023-01-18T08:53:07.982Z,16.00
2023-01-18T08:55:38.013Z,12.43
2023-01-18T08:58:07.798Z,13.60
2023-01-18T09:00:35.556Z,12.10
2023-01-18T09:03:04.324Z,13.27
2023-01-18T09:05:32.283Z,11.73
2023-01-18T09:08:00.096Z,11.13
2023-01-18T09:10:27.849Z,10.00
2023-01-18T09:12:55.773Z,11.25
2023-01-18T09:15:24.874Z,11.25
2023-01-18T09:17:52.532Z,15.80
2023-01-18T09:20:20.464Z,10.57
2023-01-18T09:22:48.737Z,13.82
2023-01-18T09:25:18.370Z,10.90
2023-01-18T09:27:46.827Z,14.38
2023-01-18T09:30:16.023Z,11.77
2023-01-18T09:32:45.080Z,12.00
2023-01-18T09:35:18.023Z,14.07
2023-01-18T09:37:46.558Z,11.55
2023-01-18T09:40:20.860Z,13.57
2023-01-18T09:42:51.272Z,12.00
2023-01-18T09:45:28.750Z,15.57
2023-01-18T09:48:02.936Z,12.05
2023-01-18T09:50:33.678Z,14.05
2023-01-18T09:53:13.223Z,13.40
2023-01-18T09:55:51.717Z,14.75
2023-01-18T09:58:36.498Z,10.15
2023-01-18T10:01:09.483Z,17.02
2023-01-18T10:03:48.641Z,11.30
2023-01-18T10:06:20.811Z,13.63
2023-01-18T10:08:55.383Z,13.52
2023-01-18T10:11:31.292Z,14.68
2023-01-18T10:14:06.313Z,17.17
2023-01-18T10:16:35.846Z,10.95
2023-01-18T10:19:15.051Z,13.80
2023-01-18T10:21:52.743Z,11.52
2023-01-18T10:24:31.288Z,11.43
2023-01-18T10:27:18.077Z,15.32
2023-01-18T10:30:04.244Z,11.77
2023-01-18T10:32:36.284Z,12.70
2023-01-18T10:35:16.124Z,13.70
2023-01-18T10:37:46.612Z,13.88
2023-01-18T10:40:15.877Z,13.55
2023-01-18T10:42:47.427Z,13.13
2023-01-18T10:45:20.164Z,14.18
2023-01-18T10:47:48.611Z,13.20
2023-01-18T10:50:22.604Z,14.25
2023-01-18T10:52:50.740Z,14.52
2023-01-18T10:55:20.774Z,11.68
2023-01-18T10:57:52.168Z,12.23
2023-01-18T11:00:23.306Z,18.17
2023-01-18T11:02:53.267Z,21.55
2023-01-18T11:05:29.964Z,17.48
2023-01-18T11:08:14.377Z,13.50
2023-01-18T11:10:42.606Z,14.55
2023-01-18T11:13:27.978Z,17.50
2023-01-18T11:16:11.947Z,16.05
2023-01-18T11:18:40.437Z,18.00
2023-01-18T11:21:12.404Z,17.88
2023-01-18T11:23:43.691Z,13.38
2023-01-18T11:26:18.593Z,11.10
2023-01-18T11:28:51.320Z,11.88
2023-01-18T11:31:22.323Z,12.30
2023-01-18T11:33:52.544Z,17.50
2023-01-18T11:36:34.098Z,12.98
2023-01-18T11:39:24.747Z,12.68
2023-01-18T11:41:53.773Z,18.05
2023-01-18T11:44:24.737Z,9.63
2023-01-18T11:46:55.514Z,11.85
2023-01-18T11:49:35.456Z,16.98
2023-01-18T11:52:12.491Z,15.50
2023-01-18T11:54:46.895Z,13.05
2023-01-18T11:57:15.814Z,9.93
2023-01-18T11:59:46.738Z,9.15
2023-01-18T12:02:56.264Z,10.07
2023-01-18T12:05:34.464Z,11.95
2023-01-18T12:08:18.441Z,11.70
2023-01-18T12:10:59.050Z,17.10
2023-01-18T12:13:37.002Z,14.63
2023-01-18T12:16:22.239Z,17.50
2023-01-18T12:19:06.600Z,12.00
2023-01-18T12:21:48.331Z,8.93
2023-01-18T12:24:45.798Z,14.90
2023-01-18T12:27:25.902Z,9.57
2023-01-18T12:30:23.416Z,10.50
2023-01-18T12:33:08.537Z,13.02
2023-01-18T12:35:52.486Z,12.70
2023-01-18T12:38:24.040Z,10.90
2023-01-18T12:41:26.808Z,13.85
2023-01-18T12:44:12.610Z,13.02
2023-01-18T12:46:47.934Z,8.68
2023-01-18T12:49:23.092Z,10.07
2023-01-18T12:52:03.117Z,10.57
2023-01-18T12:54:47.394Z,10.98
2023-01-18T12:57:17.639Z,9.13
2023-01-18T12:59:52.727Z,29.58
2023-01-18T13:02:33.119Z,16.90
2023-01-18T13:05:05.469Z,11.48
2023-01-18T13:07:37.693Z,8.93
2023-01-18T13:10:07.473Z,14.77
2023-01-18T13:12:36.973Z,10.60
2023-01-18T13:15:09.767Z,9.10
2023-01-18T13:17:42.843Z,7.97
2023-01-18T13:20:18.130Z,16.55
2023-01-18T13:22:56.239Z,11.32
2023-01-18T13:25:39.792Z,15.13
2023-01-18T13:28:19.407Z,10.57
2023-01-18T13:30:55.061Z,7.65
2023-01-18T13:33:25.076Z,11.13
2023-01-18T13:35:56.396Z,13.02
2023-01-18T13:38:40.245Z,8.50
2023-01-18T13:41:12.189Z,7.88
2023-01-18T13:44:05.862Z,9.50
2023-01-18T13:46:36.664Z,11.38
2023-01-18T13:49:37.099Z,12.43
2023-01-18T13:52:33.561Z,10.40
2023-01-18T13:55:05.371Z,10.40
2023-01-18T13:57:35.307Z,8.60
2023-01-18T14:00:07.403Z,11.13
2023-01-18T14:02:42.658Z,8.60
2023-01-18T14:05:25.291Z,10.57
2023-01-18T14:07:56.877Z,10.23
2023-01-18T14:10:31.452Z,10.23
2023-01-18T14:13:01.458Z,10.73
2023-01-18T14:15:46.571Z,11.60
2023-01-18T14:18:21.654Z,11.15
2023-01-18T14:21:12.234Z,9.88
2023-01-18T14:23:58.943Z,9.18
2023-01-18T14:26:31.683Z,8.10
2023-01-18T14:29:02.459Z,9.52
2023-01-18T14:31:35.335Z,10.57
2023-01-18T14:34:24.652Z,10.15
2023-01-18T14:36:52.949Z,9.45
2023-01-18T14:39:21.721Z,9.95
2023-01-18T14:41:56.291Z,12.68
2023-01-18T14:44:26.188Z,9.80
2023-01-18T14:46:58.579Z,12.27
2023-01-18T14:49:29.827Z,8.85
2023-01-18T14:51:57.971Z,19.73
2023-01-18T14:54:26.188Z,13.70
2023-01-18T14:57:02.411Z,9.60
2023-01-18T14:59:32.036Z,11.32
2023-01-18T15:02:02.665Z,9.70
2023-01-18T15:04:32.997Z,6.50
2023-01-18T15:07:03.667Z,8.90
2023-01-18T15:09:33.304Z,14.38
2023-01-18T15:12:05.654Z,13.20
2023-01-18T15:14:37.813Z,8.57
2023-01-18T15:17:11.229Z,8.98
2023-01-18T15:19:42.984Z,9.32
2023-01-18T15:22:13.081Z,12.50
2023-01-18T15:24:42.715Z,9.70
2023-01-18T15:27:13.715Z,7.63
2023-01-18T15:29:41.533Z,10.63
2023-01-18T15:32:16.204Z,9.13
2023-01-18T15:34:46.454Z,6.43
2023-01-18T15:37:17.399Z,11.77
2023-01-18T15:39:56.763Z,13.65
2023-01-18T15:42:29.406Z,6.05
2023-01-18T15:44:59.136Z,12.27
2023-01-18T15:47:29.662Z,11.48
2023-01-18T15:50:00.229Z,12.40
2023-01-18T15:52:47.123Z,9.60
2023-01-18T15:55:24.930Z,10.65
2023-01-18T15:58:01.940Z,13.40
2023-01-18T16:00:33.024Z,8.05
2023-01-18T16:03:03.738Z,12.57
2023-01-18T16:05:32.828Z,6.97
2023-01-18T16:08:18.031Z,9.32
2023-01-18T16:10:51.594Z,9.55
2023-01-18T16:13:23.389Z,11.73
2023-01-18T16:16:07.564Z,8.23
2023-01-18T16:18:36.771Z,11.65
2023-01-18T16:21:14.251Z,11.20
2023-01-18T16:23:45.627Z,10.27
2023-01-18T16:26:15.230Z,7.68
2023-01-18T16:28:42.929Z,10.95
2023-01-18T16:31:10.754Z,10.60
2023-01-18T16:33:40.632Z,10.82
2023-01-18T16:36:18.105Z,14.48
2023-01-18T16:38:46.084Z,11.88
2023-01-18T16:41:14.912Z,10.45
2023-01-18T16:43:44.896Z,11.27
2023-01-18T16:46:12.993Z,9.38
2023-01-18T16:48:42.088Z,13.48
2023-01-18T16:51:18.555Z,9.52
2023-01-18T16:53:48.200Z,8.60
2023-01-18T16:56:16.634Z,12.80
2023-01-18T16:58:44.687Z,8.43
2023-01-18T17:01:15.467Z,9.32
2023-01-18T17:03:44.897Z,11.27
2023-01-18T17:06:18.155Z,12.00
2023-01-18T17:08:46.502Z,9.35
2023-01-18T17:11:14.623Z,9.95
2023-01-18T17:13:42.924Z,13.15
2023-01-18T17:16:16.075Z,10.90
2023-01-18T17:18:45.461Z,13.73
2023-01-18T17:21:13.592Z,9.70
2023-01-18T17:23:41.295Z,11.30
2023-01-18T17:26:11.851Z,10.30
2023-01-18T17:28:39.486Z,9.68
2023-01-18T17:31:08.324Z,12.73
2023-01-18T17:33:39.068Z,8.73
2023-01-18T17:36:09.710Z,13.98
2023-01-18T17:38:37.513Z,9.20
2023-01-18T17:41:05.380Z,9.80
2023-01-18T17:43:36.655Z,7.05
2023-01-18T17:46:05.345Z,12.77
2023-01-18T17:48:33.184Z,10.57
2023-01-18T17:51:01.026Z,10.30
2023-01-18T17:53:31.148Z,10.25
2023-01-18T17:55:58.772Z,9.43
2023-01-18T17:58:26.426Z,10.40
2023-01-18T18:00:55.311Z,8.10
2023-01-18T18:03:23.436Z,11.07
2023-01-18T18:05:51.226Z,9.90
2023-01-18T18:08:20.054Z,13.55
2023-01-18T18:10:50.022Z,15.93
2023-01-18T18:13:18.847Z,10.13
2023-01-18T18:15:47.401Z,9.60
2023-01-18T18:18:23.455Z,9.45
2023-01-18T18:20:56.925Z,9.23
2023-01-18T18:23:24.783Z,18.02
2023-01-18T18:25:54.072Z,12.45
2023-01-18T18:28:23.332Z,12.32
2023-01-18T18:30:51.940Z,11.10
2023-01-18T18:33:20.593Z,12.57
2023-01-18T18:35:49.341Z,9.52
2023-01-18T18:38:18.779Z,10.98
2023-01-18T18:40:46.976Z,16.75
2023-01-18T18:43:16.094Z,19.77
2023-01-18T18:45:45.257Z,10.30
2023-01-18T18:48:13.673Z,12.80
2023-01-18T18:50:41.758Z,13.52
2023-01-18T18:53:09.568Z,10.50
2023-01-18T18:55:37.379Z,9.68
2023-01-18T18:58:05.065Z,15.90
2023-01-18T19:00:34.274Z,11.48
2023-01-18T19:03:03.269Z,11.25
2023-01-18T19:05:33.845Z,13.65
2023-01-18T19:08:01.848Z,11.48
2023-01-18T19:10:30.307Z,12.57
2023-01-18T19:12:58.813Z,12.55
2023-01-18T19:15:26.995Z,11.50
2023-01-18T19:17:56.009Z,16.20
2023-01-18T19:20:24.590Z,14.50
2023-01-18T19:22:52.539Z,22.90
2023-01-18T19:25:20.289Z,13.48
2023-01-18T19:27:48.139Z,11.95
2023-01-18T19:30:19.145Z,11.57
2023-01-18T19:32:48.217Z,11.85
2023-01-18T19:35:18.134Z,11.65
2023-01-18T19:37:47.779Z,12.65
2023-01-18T19:40:16.925Z,15.00
2023-01-18T19:42:46.546Z,13.93
2023-01-18T19:45:26.823Z,10.27
2023-01-18T19:47:55.557Z,14.40
2023-01-18T19:50:25.246Z,10.90
2023-01-18T19:52:53.358Z,14.18
2023-01-18T19:55:21.691Z,16.90
2023-01-18T19:57:50.999Z,12.52
2023-01-18T20:00:19.587Z,10.75
2023-01-18T20:02:47.432Z,14.70
2023-01-18T20:05:15.142Z,14.55
2023-01-18T20:07:44.520Z,14.15
2023-01-18T20:10:12.528Z,10.40
2023-01-18T20:12:40.406Z,11.88
2023-01-18T20:15:08.748Z,17.55
2023-01-18T20:17:36.534Z,13.40
2023-01-18T20:20:05.071Z,15.27
2023-01-18T20:22:32.775Z,15.98
2023-01-18T20:25:02.073Z,15.30
2023-01-18T20:27:29.881Z,10.05
2023-01-18T20:29:58.291Z,16.35
2023-01-18T20:32:26.056Z,14.95
2023-01-18T20:34:53.811Z,17.08
2023-01-18T20:37:21.505Z,12.35
2023-01-18T20:39:50.218Z,12.38
2023-01-18T20:42:19.642Z,12.95
2023-01-18T20:44:50.278Z,20.17
2023-01-18T20:47:18.281Z,12.73
2023-01-18T20:49:46.917Z,13.68
2023-01-18T20:52:14.658Z,15.43
2023-01-18T20:54:42.454Z,16.13
2023-01-18T20:57:10.588Z,18.67
2023-01-18T20:59:39.690Z,14.75
2023-01-18T21:02:08.084Z,14.85
2023-01-18T21:04:36.183Z,18.30
2023-01-18T21:07:03.953Z,21.15
2023-01-18T21:09:31.650Z,15.02
2023-01-18T21:11:59.581Z,16.83
2023-01-18T21:14:27.460Z,13.50
2023-01-18T21:16:56.523Z,22.33
2023-01-18T21:19:24.246Z,15.93
2023-01-18T21:21:51.998Z,17.00
2023-01-18T21:24:19.720Z,13.57
2023-01-18T21:26:47.455Z,16.58
2023-01-18T21:29:15.316Z,16.48
2023-01-18T21:31:43.130Z,18.00
2023-01-18T21:34:12.633Z,15.10
2023-01-18T21:36:40.298Z,14.48
2023-01-18T21:39:08.071Z,16.33
2023-01-18T21:41:53.470Z,15.55
2023-01-18T21:44:38.691Z,12.80
2023-01-18T21:47:06.378Z,17.92
2023-01-18T21:52:58.755Z,14.15
2023-01-18T21:55:26.498Z,17.75
2023-01-18T21:58:08.058Z,17.25
2023-01-18T22:00:38.125Z,18.33
2023-01-18T22:03:06.436Z,22.63
2023-01-18T22:05:34.638Z,18.25
2023-01-18T22:08:02.684Z,22.20
2023-01-18T22:10:30.451Z,14.07
2023-01-18T22:12:58.192Z,14.68
2023-01-18T22:15:26.046Z,14.80
2023-01-18T22:17:53.783Z,12.30
2023-01-18T22:20:21.508Z,17.25
2023-01-18T22:22:51.020Z,19.45
2023-01-18T22:25:18.644Z,12.77
2023-01-18T22:27:46.355Z,14.70
2023-01-18T22:30:14.806Z,13.93
2023-01-18T22:32:42.495Z,13.20
2023-01-18T22:35:10.599Z,17.50
2023-01-18T22:37:38.281Z,16.80
2023-01-18T22:40:09.340Z,16.67
2023-01-18T22:42:37.123Z,21.17
2023-01-18T22:45:05.268Z,16.70
2023-01-18T22:47:33.018Z,17.50
2023-01-18T22:50:00.783Z,24.60
2023-01-18T22:52:28.681Z,19.38
2023-01-18T22:54:56.400Z,14.02
2023-01-18T22:57:25.771Z,21.60
2023-01-18T22:59:53.455Z,18.35
2023-01-18T23:02:21.165Z,15.00
2023-01-18T23:04:49.385Z,18.60
2023-01-18T23:07:17.460Z,17.05
2023-01-18T23:09:45.161Z,20.50
2023-01-18T23:12:12.904Z,19.17
2023-01-18T23:14:59.248Z,20.73
2023-01-18T23:17:43.217Z,18.35
2023-01-18T23:20:14.706Z,14.80
2023-01-18T23:22:42.467Z,18.27
2023-01-18T23:25:10.684Z,20.38
2023-01-18T23:27:38.354Z,23.85
2023-01-18T23:30:08.986Z,19.55
2023-01-18T23:32:37.412Z,17.88
2023-01-18T23:35:05.925Z,20.80
2023-01-18T23:37:34.138Z,22.92
2023-01-18T23:40:19.220Z,18.08
2023-01-18T23:43:04.503Z,19.65
2023-01-18T23:45:51.406Z,21.52
2023-01-18T23:48:38.285Z,20.77
2023-01-18T23:51:23.815Z,21.38
2023-01-18T23:54:09.088Z,18.10
2023-01-18T23:56:36.791Z,23.45
2023-01-18T23:59:04.974Z,21.40
